sensor_id;sensor_type;location;lat;lon;timestamp;temperature;humidity
11501;DHT22;5807;51.606;7.624;2022-07-05T00:00:43;14.80;99.90
11501;DHT22;5807;51.606;7.624;2022-07-05T00:03:10;14.70;99.90
11501;DHT22;5807;51.606;7.624;2022-07-05T00:05:39;14.70;99.90
11501;DHT22;5807;51.606;7.624;2022-07-05T00:08:07;14.70;99.90
11501;DHT22;5807;51.606;7.624;2022-07-05T00:10:34;14.80;99.90
11501;DHT22;5807;51.606;7.624;2022-07-05T00:13:03;14.80;99.90
11501;DHT22;5807;51.606;7.624;2022-07-05T00:15:30;14.80;99.90
11501;DHT22;5807;51.606;7.624;2022-07-05T00:17:57;14.90;99.90
11501;DHT22;5807;51.606;7.624;2022-07-05T00:20:24;14.80;99.90
11501;DHT22;5807;51.606;7.624;2022-07-05T00:22:53;14.90;99.90
11501;DHT22;5807;51.606;7.624;2022-07-05T00:25:20;14.90;99.90
11501;DHT22;5807;51.606;7.624;2022-07-05T00:27:46;14.80;99.90
11501;DHT22;5807;51.606;7.624;2022-07-05T00:30:14;14.80;99.90
11501;DHT22;5807;51.606;7.624;2022-07-05T00:32:41;14.80;99.90
11501;DHT22;5807;51.606;7.624;2022-07-05T00:35:08;14.70;99.90
11501;DHT22;5807;51.606;7.624;2022-07-05T00:37:35;14.70;99.90
11501;DHT22;5807;51.606;7.624;2022-07-05T00:40:05;14.60;99.90
11501;DHT22;5807;51.606;7.624;2022-07-05T00:42:33;14.50;99.90
11501;DHT22;5807;51.606;7.624;2022-07-05T00:45:03;14.40;99.90
11501;DHT22;5807;51.606;7.624;2022-07-05T00:47:30;14.30;99.90
11501;DHT22;5807;51.606;7.624;2022-07-05T00:49:56;14.40;99.90
11501;DHT22;5807;51.606;7.624;2022-07-05T00:52:23;14.30;99.90
11501;DHT22;5807;51.606;7.624;2022-07-05T00:54:50;14.50;99.90
11501;DHT22;5807;51.606;7.624;2022-07-05T00:57:20;14.20;99.90
11501;DHT22;5807;51.606;7.624;2022-07-05T00:59:47;14.20;99.90
11501;DHT22;5807;51.606;7.624;2022-07-05T01:02:14;14.10;99.90
11501;DHT22;5807;51.606;7.624;2022-07-05T01:04:41;14.20;99.90
11501;DHT22;5807;51.606;7.624;2022-07-05T01:07:08;14.20;99.90
11501;DHT22;5807;51.606;7.624;2022-07-05T01:09:35;14.20;99.90
11501;DHT22;5807;51.606;7.624;2022-07-05T01:12:03;14.30;99.90
11501;DHT22;5807;51.606;7.624;2022-07-05T01:14:31;14.30;99.90
11501;DHT22;5807;51.606;7.624;2022-07-05T01:16:59;14.20;99.90
11501;DHT22;5807;51.606;7.624;2022-07-05T01:19:26;14.30;99.90
11501;DHT22;5807;51.606;7.624;2022-07-05T01:21:53;14.30;99.90
11501;DHT22;5807;51.606;7.624;2022-07-05T01:24:22;14.30;99.90
11501;DHT22;5807;51.606;7.624;2022-07-05T01:26:50;14.20;99.90
11501;DHT22;5807;51.606;7.624;2022-07-05T01:29:18;14.20;99.90
11501;DHT22;5807;51.606;7.624;2022-07-05T01:31:45;14.10;99.90
11501;DHT22;5807;51.606;7.624;2022-07-05T01:34:12;14.10;99.90
11501;DHT22;5807;51.606;7.624;2022-07-05T01:36:39;14.00;99.90
11501;DHT22;5807;51.606;7.624;2022-07-05T01:39:07;14.00;99.90
11501;DHT22;5807;51.606;7.624;2022-07-05T01:44:03;14.10;99.90
11501;DHT22;5807;51.606;7.624;2022-07-05T01:46:32;14.10;99.90
11501;DHT22;5807;51.606;7.624;2022-07-05T01:49:04;14.10;99.90
11501;DHT22;5807;51.606;7.624;2022-07-05T01:51:35;14.10;99.90
11501;DHT22;5807;51.606;7.624;2022-07-05T01:54:04;14.10;99.90
11501;DHT22;5807;51.606;7.624;2022-07-05T01:56:31;14.20;99.90
11501;DHT22;5807;51.606;7.624;2022-07-05T01:59:00;14.10;99.90
11501;DHT22;5807;51.606;7.624;2022-07-05T02:01:32;14.10;99.90
11501;DHT22;5807;51.606;7.624;2022-07-05T02:04:09;14.10;99.90
11501;DHT22;5807;51.606;7.624;2022-07-05T02:09:04;14.10;99.90
11501;DHT22;5807;51.606;7.624;2022-07-05T02:11:31;14.10;99.90
11501;DHT22;5807;51.606;7.624;2022-07-05T02:13:59;14.10;99.90
11501;DHT22;5807;51.606;7.624;2022-07-05T02:16:27;14.10;99.90
11501;DHT22;5807;51.606;7.624;2022-07-05T02:18:54;14.10;99.90
11501;DHT22;5807;51.606;7.624;2022-07-05T02:21:21;14.10;99.90
11501;DHT22;5807;51.606;7.624;2022-07-05T02:23:48;14.10;99.90
11501;DHT22;5807;51.606;7.624;2022-07-05T02:26:16;14.00;99.90
11501;DHT22;5807;51.606;7.624;2022-07-05T02:28:43;13.90;99.90
11501;DHT22;5807;51.606;7.624;2022-07-05T02:31:11;13.80;99.90
11501;DHT22;5807;51.606;7.624;2022-07-05T02:33:38;13.70;99.90
11501;DHT22;5807;51.606;7.624;2022-07-05T02:36:06;13.60;99.90
11501;DHT22;5807;51.606;7.624;2022-07-05T02:38:34;13.50;99.90
11501;DHT22;5807;51.606;7.624;2022-07-05T02:41:04;13.60;99.90
11501;DHT22;5807;51.606;7.624;2022-07-05T02:43:34;13.70;99.90
11501;DHT22;5807;51.606;7.624;2022-07-05T02:46:02;14.20;99.90
11501;DHT22;5807;51.606;7.624;2022-07-05T02:48:31;13.90;99.90
11501;DHT22;5807;51.606;7.624;2022-07-05T02:50:58;13.90;99.90
11501;DHT22;5807;51.606;7.624;2022-07-05T02:53:25;13.90;99.90
11501;DHT22;5807;51.606;7.624;2022-07-05T02:55:52;13.90;99.90
11501;DHT22;5807;51.606;7.624;2022-07-05T02:58:19;13.80;99.90
11501;DHT22;5807;51.606;7.624;2022-07-05T03:00:46;13.80;99.90
11501;DHT22;5807;51.606;7.624;2022-07-05T03:03:14;13.70;99.90
11501;DHT22;5807;51.606;7.624;2022-07-05T03:05:43;13.60;99.90
11501;DHT22;5807;51.606;7.624;2022-07-05T03:08:10;13.60;99.90
11501;DHT22;5807;51.606;7.624;2022-07-05T03:10:37;13.60;99.90
11501;DHT22;5807;51.606;7.624;2022-07-05T03:13:05;13.50;99.90
11501;DHT22;5807;51.606;7.624;2022-07-05T03:15:33;13.50;99.90
11501;DHT22;5807;51.606;7.624;2022-07-05T03:18:00;13.40;99.90
11501;DHT22;5807;51.606;7.624;2022-07-05T03:20:27;13.20;99.90
11501;DHT22;5807;51.606;7.624;2022-07-05T03:22:55;13.50;99.90
11501;DHT22;5807;51.606;7.624;2022-07-05T03:25:22;13.50;99.90
11501;DHT22;5807;51.606;7.624;2022-07-05T03:27:49;13.50;99.90
11501;DHT22;5807;51.606;7.624;2022-07-05T03:30:16;13.50;99.90
11501;DHT22;5807;51.606;7.624;2022-07-05T03:32:43;13.50;99.90
11501;DHT22;5807;51.606;7.624;2022-07-05T03:35:10;13.60;99.90
11501;DHT22;5807;51.606;7.624;2022-07-05T03:37:37;13.60;99.90
11501;DHT22;5807;51.606;7.624;2022-07-05T03:40:06;13.70;99.90
11501;DHT22;5807;51.606;7.624;2022-07-05T03:42:33;13.90;99.90
11501;DHT22;5807;51.606;7.624;2022-07-05T03:45:00;14.00;99.90
11501;DHT22;5807;51.606;7.624;2022-07-05T03:47:27;14.10;99.90
11501;DHT22;5807;51.606;7.624;2022-07-05T03:49:54;14.10;99.90
11501;DHT22;5807;51.606;7.624;2022-07-05T03:52:21;14.10;99.90
11501;DHT22;5807;51.606;7.624;2022-07-05T03:54:48;14.10;99.90
11501;DHT22;5807;51.606;7.624;2022-07-05T03:57:16;14.10;99.90
11501;DHT22;5807;51.606;7.624;2022-07-05T03:59:44;14.00;99.90
11501;DHT22;5807;51.606;7.624;2022-07-05T04:02:11;13.90;99.90
11501;DHT22;5807;51.606;7.624;2022-07-05T04:04:38;13.90;99.90
11501;DHT22;5807;51.606;7.624;2022-07-05T04:07:05;13.90;99.90
11501;DHT22;5807;51.606;7.624;2022-07-05T04:09:32;13.90;99.90
11501;DHT22;5807;51.606;7.624;2022-07-05T04:11:58;14.00;99.90
11501;DHT22;5807;51.606;7.624;2022-07-05T04:14:27;14.00;99.90
11501;DHT22;5807;51.606;7.624;2022-07-05T04:16:54;14.10;99.90
11501;DHT22;5807;51.606;7.624;2022-07-05T04:21:48;14.00;99.90
11501;DHT22;5807;51.606;7.624;2022-07-05T04:24:14;14.10;99.90
11501;DHT22;5807;51.606;7.624;2022-07-05T04:26:42;14.20;99.90
11501;DHT22;5807;51.606;7.624;2022-07-05T04:29:09;14.30;99.90
11501;DHT22;5807;51.606;7.624;2022-07-05T04:31:37;14.40;99.90
11501;DHT22;5807;51.606;7.624;2022-07-05T04:34:04;14.50;99.90
11501;DHT22;5807;51.606;7.624;2022-07-05T04:36:31;14.50;99.90
11501;DHT22;5807;51.606;7.624;2022-07-05T04:38:58;14.60;99.90
11501;DHT22;5807;51.606;7.624;2022-07-05T04:41:24;14.60;99.90
11501;DHT22;5807;51.606;7.624;2022-07-05T04:43:51;14.60;99.90
11501;DHT22;5807;51.606;7.624;2022-07-05T04:46:19;14.70;99.90
11501;DHT22;5807;51.606;7.624;2022-07-05T04:48:47;14.70;99.90
11501;DHT22;5807;51.606;7.624;2022-07-05T04:51:15;14.70;99.90
11501;DHT22;5807;51.606;7.624;2022-07-05T04:53:42;14.70;99.90
11501;DHT22;5807;51.606;7.624;2022-07-05T04:56:09;14.70;99.90
11501;DHT22;5807;51.606;7.624;2022-07-05T04:58:35;14.70;99.90
11501;DHT22;5807;51.606;7.624;2022-07-05T05:01:02;14.90;99.90
11501;DHT22;5807;51.606;7.624;2022-07-05T05:03:29;14.90;99.90
11501;DHT22;5807;51.606;7.624;2022-07-05T05:05:59;15.10;99.90
11501;DHT22;5807;51.606;7.624;2022-07-05T05:08:26;15.10;99.90
11501;DHT22;5807;51.606;7.624;2022-07-05T05:10:53;15.20;99.90
11501;DHT22;5807;51.606;7.624;2022-07-05T05:18:18;15.20;99.90
11501;DHT22;5807;51.606;7.624;2022-07-05T05:20:49;15.20;99.90
11501;DHT22;5807;51.606;7.624;2022-07-05T05:23:18;15.30;99.90
11501;DHT22;5807;51.606;7.624;2022-07-05T05:25:44;15.40;99.90
11501;DHT22;5807;51.606;7.624;2022-07-05T05:28:11;15.50;99.90
11501;DHT22;5807;51.606;7.624;2022-07-05T05:30:38;15.60;99.90
11501;DHT22;5807;51.606;7.624;2022-07-05T05:33:05;15.70;99.90
11501;DHT22;5807;51.606;7.624;2022-07-05T05:35:32;15.90;99.90
11501;DHT22;5807;51.606;7.624;2022-07-05T05:37:59;16.30;99.90
11501;DHT22;5807;51.606;7.624;2022-07-05T05:40:27;16.20;99.90
11501;DHT22;5807;51.606;7.624;2022-07-05T05:42:54;16.50;99.90
11501;DHT22;5807;51.606;7.624;2022-07-05T05:45:22;16.70;99.90
11501;DHT22;5807;51.606;7.624;2022-07-05T05:47:50;16.90;99.90
11501;DHT22;5807;51.606;7.624;2022-07-05T05:50:21;17.10;99.90
11501;DHT22;5807;51.606;7.624;2022-07-05T05:52:48;17.40;99.90
11501;DHT22;5807;51.606;7.624;2022-07-05T05:55:15;17.50;99.90
11501;DHT22;5807;51.606;7.624;2022-07-05T05:57:43;17.70;99.90
11501;DHT22;5807;51.606;7.624;2022-07-05T06:00:11;17.90;99.90
11501;DHT22;5807;51.606;7.624;2022-07-05T06:02:39;18.10;99.90
11501;DHT22;5807;51.606;7.624;2022-07-05T06:05:07;18.20;99.90
11501;DHT22;5807;51.606;7.624;2022-07-05T06:07:47;18.30;99.90
11501;DHT22;5807;51.606;7.624;2022-07-05T06:10:16;18.40;99.90
11501;DHT22;5807;51.606;7.624;2022-07-05T06:12:44;18.40;99.90
11501;DHT22;5807;51.606;7.624;2022-07-05T06:15:12;18.60;99.90
11501;DHT22;5807;51.606;7.624;2022-07-05T06:17:39;18.70;99.90
11501;DHT22;5807;51.606;7.624;2022-07-05T06:20:08;18.90;99.90
11501;DHT22;5807;51.606;7.624;2022-07-05T06:22:35;19.10;99.90
11501;DHT22;5807;51.606;7.624;2022-07-05T06:25:02;19.30;99.90
11501;DHT22;5807;51.606;7.624;2022-07-05T06:27:29;19.60;99.90
11501;DHT22;5807;51.606;7.624;2022-07-05T06:29:58;19.80;99.90
11501;DHT22;5807;51.606;7.624;2022-07-05T06:32:25;20.00;99.90
11501;DHT22;5807;51.606;7.624;2022-07-05T06:34:52;20.40;99.90
11501;DHT22;5807;51.606;7.624;2022-07-05T06:37:19;20.60;99.90
11501;DHT22;5807;51.606;7.624;2022-07-05T06:39:46;21.00;99.90
11501;DHT22;5807;51.606;7.624;2022-07-05T06:42:12;21.10;99.90
11501;DHT22;5807;51.606;7.624;2022-07-05T06:44:39;21.30;99.90
11501;DHT22;5807;51.606;7.624;2022-07-05T06:47:08;21.60;97.90
11501;DHT22;5807;51.606;7.624;2022-07-05T06:49:35;22.30;97.60
11501;DHT22;5807;51.606;7.624;2022-07-05T06:52:03;22.00;96.30
11501;DHT22;5807;51.606;7.624;2022-07-05T06:54:29;22.10;94.10
11501;DHT22;5807;51.606;7.624;2022-07-05T06:56:56;21.80;96.20
11501;DHT22;5807;51.606;7.624;2022-07-05T06:59:23;22.50;95.00
11501;DHT22;5807;51.606;7.624;2022-07-05T07:01:50;22.80;94.90
11501;DHT22;5807;51.606;7.624;2022-07-05T07:04:18;22.90;93.70
11501;DHT22;5807;51.606;7.624;2022-07-05T07:06:45;23.00;92.60
11501;DHT22;5807;51.606;7.624;2022-07-05T07:09:12;23.10;90.60
11501;DHT22;5807;51.606;7.624;2022-07-05T07:11:43;23.10;90.40
11501;DHT22;5807;51.606;7.624;2022-07-05T07:14:11;23.20;90.90
11501;DHT22;5807;51.606;7.624;2022-07-05T07:16:38;23.30;90.90
11501;DHT22;5807;51.606;7.624;2022-07-05T07:19:05;23.50;90.80
11501;DHT22;5807;51.606;7.624;2022-07-05T07:21:33;23.40;91.40
11501;DHT22;5807;51.606;7.624;2022-07-05T07:24:00;23.20;88.20
11501;DHT22;5807;51.606;7.624;2022-07-05T07:26:27;23.10;90.00
11501;DHT22;5807;51.606;7.624;2022-07-05T07:28:54;23.40;88.40
11501;DHT22;5807;51.606;7.624;2022-07-05T07:31:21;23.60;88.50
11501;DHT22;5807;51.606;7.624;2022-07-05T07:33:48;23.80;87.40
11501;DHT22;5807;51.606;7.624;2022-07-05T07:36:14;23.90;87.90
11501;DHT22;5807;51.606;7.624;2022-07-05T07:38:43;24.00;82.20
11501;DHT22;5807;51.606;7.624;2022-07-05T07:41:10;24.30;86.70
11501;DHT22;5807;51.606;7.624;2022-07-05T07:43:41;24.60;81.70
11501;DHT22;5807;51.606;7.624;2022-07-05T07:46:08;24.50;81.70
11501;DHT22;5807;51.606;7.624;2022-07-05T07:48:35;24.40;80.30
11501;DHT22;5807;51.606;7.624;2022-07-05T07:51:02;24.30;83.50
11501;DHT22;5807;51.606;7.624;2022-07-05T07:53:29;24.60;87.60
11501;DHT22;5807;51.606;7.624;2022-07-05T07:55:57;24.80;82.40
11501;DHT22;5807;51.606;7.624;2022-07-05T07:58:24;24.90;83.60
11501;DHT22;5807;51.606;7.624;2022-07-05T08:00:51;25.10;83.30
11501;DHT22;5807;51.606;7.624;2022-07-05T08:03:18;25.10;76.90
11501;DHT22;5807;51.606;7.624;2022-07-05T08:05:45;25.00;80.90
11501;DHT22;5807;51.606;7.624;2022-07-05T08:08:15;25.10;79.40
11501;DHT22;5807;51.606;7.624;2022-07-05T08:23:12;25.90;81.20
11501;DHT22;5807;51.606;7.624;2022-07-05T08:25:39;25.80;77.20
11501;DHT22;5807;51.606;7.624;2022-07-05T08:28:06;25.50;76.00
11501;DHT22;5807;51.606;7.624;2022-07-05T08:30:33;24.50;78.70
11501;DHT22;5807;51.606;7.624;2022-07-05T08:33:00;23.70;80.70
11501;DHT22;5807;51.606;7.624;2022-07-05T08:35:26;23.00;82.50
11501;DHT22;5807;51.606;7.624;2022-07-05T08:37:53;22.50;83.60
11501;DHT22;5807;51.606;7.624;2022-07-05T08:40:26;23.10;88.20
11501;DHT22;5807;51.606;7.624;2022-07-05T08:42:57;23.90;83.50
11501;DHT22;5807;51.606;7.624;2022-07-05T08:45:30;24.70;77.50
11501;DHT22;5807;51.606;7.624;2022-07-05T08:48:00;25.60;72.20
11501;DHT22;5807;51.606;7.624;2022-07-05T08:50:27;25.80;73.20
11501;DHT22;5807;51.606;7.624;2022-07-05T08:52:56;25.40;76.30
11501;DHT22;5807;51.606;7.624;2022-07-05T08:55:29;25.50;75.60
11501;DHT22;5807;51.606;7.624;2022-07-05T08:58:00;25.20;74.50
11501;DHT22;5807;51.606;7.624;2022-07-05T09:00:28;24.60;75.70
11501;DHT22;5807;51.606;7.624;2022-07-05T09:02:56;24.00;76.60
11501;DHT22;5807;51.606;7.624;2022-07-05T09:05:25;23.50;78.90
11501;DHT22;5807;51.606;7.624;2022-07-05T09:07:57;23.20;81.40
11501;DHT22;5807;51.606;7.624;2022-07-05T09:10:26;22.90;79.00
11501;DHT22;5807;51.606;7.624;2022-07-05T09:12:56;22.80;82.20
11501;DHT22;5807;51.606;7.624;2022-07-05T09:15:23;23.80;78.90
11501;DHT22;5807;51.606;7.624;2022-07-05T09:17:50;24.00;77.60
11501;DHT22;5807;51.606;7.624;2022-07-05T09:20:19;23.60;77.30
11501;DHT22;5807;51.606;7.624;2022-07-05T09:22:48;23.10;79.50
11501;DHT22;5807;51.606;7.624;2022-07-05T09:25:23;22.60;78.70
11501;DHT22;5807;51.606;7.624;2022-07-05T09:27:52;22.30;80.80
11501;DHT22;5807;51.606;7.624;2022-07-05T09:30:32;22.00;81.70
11501;DHT22;5807;51.606;7.624;2022-07-05T09:33:03;21.70;84.90
11501;DHT22;5807;51.606;7.624;2022-07-05T09:35:31;21.50;84.50
11501;DHT22;5807;51.606;7.624;2022-07-05T09:37:58;21.30;85.40
11501;DHT22;5807;51.606;7.624;2022-07-05T09:40:25;21.70;84.20
11501;DHT22;5807;51.606;7.624;2022-07-05T09:42:52;22.90;84.90
11501;DHT22;5807;51.606;7.624;2022-07-05T09:45:22;24.00;81.00
11501;DHT22;5807;51.606;7.624;2022-07-05T09:47:53;25.00;79.90
11501;DHT22;5807;51.606;7.624;2022-07-05T09:50:33;25.70;75.80
11501;DHT22;5807;51.606;7.624;2022-07-05T09:52:59;25.80;74.40
11501;DHT22;5807;51.606;7.624;2022-07-05T09:55:26;25.30;75.80
11501;DHT22;5807;51.606;7.624;2022-07-05T09:57:54;25.60;77.80
11501;DHT22;5807;51.606;7.624;2022-07-05T10:00:21;25.60;74.90
11501;DHT22;5807;51.606;7.624;2022-07-05T10:02:51;25.30;73.30
11501;DHT22;5807;51.606;7.624;2022-07-05T10:05:19;24.50;75.50
11501;DHT22;5807;51.606;7.624;2022-07-05T10:07:47;23.90;75.40
11501;DHT22;5807;51.606;7.624;2022-07-05T10:10:15;23.30;78.10
11501;DHT22;5807;51.606;7.624;2022-07-05T10:12:44;23.00;77.10
11501;DHT22;5807;51.606;7.624;2022-07-05T10:15:12;22.70;79.80
11501;DHT22;5807;51.606;7.624;2022-07-05T10:17:41;22.80;80.10
11501;DHT22;5807;51.606;7.624;2022-07-05T10:20:17;23.60;77.20
11501;DHT22;5807;51.606;7.624;2022-07-05T10:22:46;24.70;72.40
11501;DHT22;5807;51.606;7.624;2022-07-05T10:25:14;25.30;71.40
11501;DHT22;5807;51.606;7.624;2022-07-05T10:27:42;25.20;70.10
11501;DHT22;5807;51.606;7.624;2022-07-05T10:30:10;24.70;70.80
11501;DHT22;5807;51.606;7.624;2022-07-05T10:32:38;24.40;71.60
11501;DHT22;5807;51.606;7.624;2022-07-05T10:35:12;24.40;73.60
11501;DHT22;5807;51.606;7.624;2022-07-05T10:37:44;24.30;74.10
11501;DHT22;5807;51.606;7.624;2022-07-05T10:40:12;24.70;71.20
11501;DHT22;5807;51.606;7.624;2022-07-05T10:42:41;25.60;70.50
11501;DHT22;5807;51.606;7.624;2022-07-05T10:45:25;26.40;67.30
11501;DHT22;5807;51.606;7.624;2022-07-05T10:48:12;26.00;64.70
11501;DHT22;5807;51.606;7.624;2022-07-05T10:50:50;25.90;70.00
11501;DHT22;5807;51.606;7.624;2022-07-05T10:53:21;26.20;67.60
11501;DHT22;5807;51.606;7.624;2022-07-05T10:55:56;25.70;66.60
11501;DHT22;5807;51.606;7.624;2022-07-05T10:58:31;25.20;66.40
11501;DHT22;5807;51.606;7.624;2022-07-05T11:01:32;24.80;71.00
11501;DHT22;5807;51.606;7.624;2022-07-05T11:04:33;25.50;71.00
11501;DHT22;5807;51.606;7.624;2022-07-05T11:07:02;25.80;65.10
11501;DHT22;5807;51.606;7.624;2022-07-05T11:09:31;25.50;67.60
11501;DHT22;5807;51.606;7.624;2022-07-05T11:12:03;25.80;68.90
11501;DHT22;5807;51.606;7.624;2022-07-05T11:14:47;26.10;63.90
11501;DHT22;5807;51.606;7.624;2022-07-05T11:17:19;26.70;63.20
11501;DHT22;5807;51.606;7.624;2022-07-05T11:19:59;27.40;62.20
11501;DHT22;5807;51.606;7.624;2022-07-05T11:22:26;27.90;60.80
11501;DHT22;5807;51.606;7.624;2022-07-05T11:24:55;28.10;63.30
11501;DHT22;5807;51.606;7.624;2022-07-05T11:27:22;28.40;58.50
11501;DHT22;5807;51.606;7.624;2022-07-05T11:29:51;28.50;57.40
11501;DHT22;5807;51.606;7.624;2022-07-05T11:32:19;28.50;56.70
11501;DHT22;5807;51.606;7.624;2022-07-05T11:34:48;28.20;57.20
11501;DHT22;5807;51.606;7.624;2022-07-05T11:37:18;28.20;56.90
11501;DHT22;5807;51.606;7.624;2022-07-05T11:42:53;28.00;54.40
11501;DHT22;5807;51.606;7.624;2022-07-05T11:45:19;27.60;54.40
11501;DHT22;5807;51.606;7.624;2022-07-05T11:47:47;28.00;58.30
11501;DHT22;5807;51.606;7.624;2022-07-05T11:50:14;28.70;54.60
11501;DHT22;5807;51.606;7.624;2022-07-05T11:52:41;29.20;57.60
11501;DHT22;5807;51.606;7.624;2022-07-05T11:55:10;28.80;54.70
11501;DHT22;5807;51.606;7.624;2022-07-05T11:57:37;28.90;53.60
11501;DHT22;5807;51.606;7.624;2022-07-05T12:00:25;28.00;55.30
11501;DHT22;5807;51.606;7.624;2022-07-05T12:02:53;27.30;54.30
11501;DHT22;5807;51.606;7.624;2022-07-05T12:05:20;27.20;53.90
11501;DHT22;5807;51.606;7.624;2022-07-05T12:07:51;26.50;55.70
11501;DHT22;5807;51.606;7.624;2022-07-05T12:10:19;25.90;57.30
11501;DHT22;5807;51.606;7.624;2022-07-05T12:13:05;25.60;57.80
11501;DHT22;5807;51.606;7.624;2022-07-05T12:15:34;25.30;57.20
11501;DHT22;5807;51.606;7.624;2022-07-05T12:18:02;25.30;59.10
11501;DHT22;5807;51.606;7.624;2022-07-05T12:20:30;25.00;58.50
11501;DHT22;5807;51.606;7.624;2022-07-05T12:22:58;24.90;61.60
11501;DHT22;5807;51.606;7.624;2022-07-05T12:25:27;25.50;60.70
11501;DHT22;5807;51.606;7.624;2022-07-05T12:27:56;26.30;60.30
11501;DHT22;5807;51.606;7.624;2022-07-05T12:30:24;27.20;58.00
11501;DHT22;5807;51.606;7.624;2022-07-05T12:32:57;27.70;59.00
11501;DHT22;5807;51.606;7.624;2022-07-05T12:35:34;28.70;57.40
11501;DHT22;5807;51.606;7.624;2022-07-05T12:38:06;28.20;56.60
11501;DHT22;5807;51.606;7.624;2022-07-05T12:40:34;28.60;55.90
11501;DHT22;5807;51.606;7.624;2022-07-05T12:43:08;28.80;54.70
11501;DHT22;5807;51.606;7.624;2022-07-05T12:45:36;28.70;55.00
11501;DHT22;5807;51.606;7.624;2022-07-05T12:48:06;28.50;56.70
11501;DHT22;5807;51.606;7.624;2022-07-05T12:50:47;28.60;55.50
11501;DHT22;5807;51.606;7.624;2022-07-05T12:53:15;28.80;56.30
11501;DHT22;5807;51.606;7.624;2022-07-05T12:56:01;28.50;55.50
11501;DHT22;5807;51.606;7.624;2022-07-05T12:58:50;28.60;54.90
11501;DHT22;5807;51.606;7.624;2022-07-05T13:01:21;28.50;54.00
11501;DHT22;5807;51.606;7.624;2022-07-05T13:03:58;28.60;54.30
11501;DHT22;5807;51.606;7.624;2022-07-05T13:06:42;28.60;55.80
11501;DHT22;5807;51.606;7.624;2022-07-05T13:09:10;28.40;56.20
11501;DHT22;5807;51.606;7.624;2022-07-05T13:11:37;28.20;54.60
11501;DHT22;5807;51.606;7.624;2022-07-05T13:14:04;27.80;55.70
11501;DHT22;5807;51.606;7.624;2022-07-05T13:16:31;27.30;58.40
11501;DHT22;5807;51.606;7.624;2022-07-05T13:19:08;26.30;56.10
11501;DHT22;5807;51.606;7.624;2022-07-05T13:21:38;25.20;60.00
11501;DHT22;5807;51.606;7.624;2022-07-05T13:27:02;25.00;60.90
11501;DHT22;5807;51.606;7.624;2022-07-05T13:34:50;25.30;61.00
11501;DHT22;5807;51.606;7.624;2022-07-05T13:37:26;25.30;61.40
11501;DHT22;5807;51.606;7.624;2022-07-05T13:39:53;25.30;62.70
11501;DHT22;5807;51.606;7.624;2022-07-05T13:42:20;25.00;61.40
11501;DHT22;5807;51.606;7.624;2022-07-05T13:47:16;25.80;58.00
11501;DHT22;5807;51.606;7.624;2022-07-05T13:52:11;25.50;61.70
11501;DHT22;5807;51.606;7.624;2022-07-05T13:54:39;25.50;60.40
11501;DHT22;5807;51.606;7.624;2022-07-05T13:57:08;25.40;62.10
11501;DHT22;5807;51.606;7.624;2022-07-05T13:59:35;25.20;60.70
11501;DHT22;5807;51.606;7.624;2022-07-05T14:02:03;25.10;61.20
11501;DHT22;5807;51.606;7.624;2022-07-05T14:04:30;25.40;60.00
11501;DHT22;5807;51.606;7.624;2022-07-05T14:09:33;26.00;60.70
11501;DHT22;5807;51.606;7.624;2022-07-05T14:12:00;26.40;61.70
11501;DHT22;5807;51.606;7.624;2022-07-05T14:14:27;26.40;59.50
11501;DHT22;5807;51.606;7.624;2022-07-05T14:16:53;26.30;59.60
11501;DHT22;5807;51.606;7.624;2022-07-05T14:19:20;26.40;61.30
11501;DHT22;5807;51.606;7.624;2022-07-05T14:21:47;26.80;58.70
11501;DHT22;5807;51.606;7.624;2022-07-05T14:24:14;27.00;62.20
11501;DHT22;5807;51.606;7.624;2022-07-05T14:26:42;27.20;56.60
11501;DHT22;5807;51.606;7.624;2022-07-05T14:29:09;26.90;59.10
11501;DHT22;5807;51.606;7.624;2022-07-05T14:31:36;26.70;58.10
11501;DHT22;5807;51.606;7.624;2022-07-05T14:34:03;26.70;57.50
11501;DHT22;5807;51.606;7.624;2022-07-05T14:39:00;26.90;58.90
11501;DHT22;5807;51.606;7.624;2022-07-05T14:41:27;26.10;59.10
11501;DHT22;5807;51.606;7.624;2022-07-05T14:43:55;25.50;59.80
11501;DHT22;5807;51.606;7.624;2022-07-05T14:46:22;25.50;60.80
11501;DHT22;5807;51.606;7.624;2022-07-05T14:48:50;25.40;59.50
11501;DHT22;5807;51.606;7.624;2022-07-05T14:51:17;25.30;61.40
11501;DHT22;5807;51.606;7.624;2022-07-05T14:53:45;24.80;62.20
11501;DHT22;5807;51.606;7.624;2022-07-05T14:56:12;24.80;63.30
11501;DHT22;5807;51.606;7.624;2022-07-05T14:58:39;24.70;63.20
11501;DHT22;5807;51.606;7.624;2022-07-05T15:03:35;24.70;64.20
11501;DHT22;5807;51.606;7.624;2022-07-05T15:06:02;24.70;64.20
11501;DHT22;5807;51.606;7.624;2022-07-05T15:10:57;25.60;63.80
11501;DHT22;5807;51.606;7.624;2022-07-05T15:13:30;25.70;63.20
11501;DHT22;5807;51.606;7.624;2022-07-05T15:15:57;25.70;62.20
11501;DHT22;5807;51.606;7.624;2022-07-05T15:18:25;25.40;62.90
11501;DHT22;5807;51.606;7.624;2022-07-05T15:20:52;25.00;62.10
11501;DHT22;5807;51.606;7.624;2022-07-05T15:23:19;24.90;63.10
11501;DHT22;5807;51.606;7.624;2022-07-05T15:25:46;24.80;64.40
11501;DHT22;5807;51.606;7.624;2022-07-05T15:28:13;24.70;64.90
11501;DHT22;5807;51.606;7.624;2022-07-05T15:30:41;24.60;66.30
11501;DHT22;5807;51.606;7.624;2022-07-05T15:33:08;24.50;65.40
11501;DHT22;5807;51.606;7.624;2022-07-05T15:35:36;24.50;66.30
11501;DHT22;5807;51.606;7.624;2022-07-05T15:38:03;24.50;66.10
11501;DHT22;5807;51.606;7.624;2022-07-05T15:40:30;24.30;65.60
11501;DHT22;5807;51.606;7.624;2022-07-05T15:42:57;24.10;65.20
11501;DHT22;5807;51.606;7.624;2022-07-05T15:45:24;23.90;67.70
11501;DHT22;5807;51.606;7.624;2022-07-05T15:47:50;23.90;67.70
11501;DHT22;5807;51.606;7.624;2022-07-05T15:50:17;23.70;66.40
11501;DHT22;5807;51.606;7.624;2022-07-05T15:52:46;23.50;67.30
11501;DHT22;5807;51.606;7.624;2022-07-05T15:55:12;23.30;66.10
11501;DHT22;5807;51.606;7.624;2022-07-05T15:57:39;23.20;67.20
11501;DHT22;5807;51.606;7.624;2022-07-05T16:00:07;23.00;69.10
11501;DHT22;5807;51.606;7.624;2022-07-05T16:02:34;22.90;68.50
11501;DHT22;5807;51.606;7.624;2022-07-05T16:05:01;22.70;69.50
11501;DHT22;5807;51.606;7.624;2022-07-05T16:07:28;22.60;68.40
11501;DHT22;5807;51.606;7.624;2022-07-05T16:09:56;22.60;70.40
11501;DHT22;5807;51.606;7.624;2022-07-05T16:12:23;22.70;69.80
11501;DHT22;5807;51.606;7.624;2022-07-05T16:14:50;23.20;69.80
11501;DHT22;5807;51.606;7.624;2022-07-05T16:17:18;23.60;69.50
11501;DHT22;5807;51.606;7.624;2022-07-05T16:19:44;23.80;67.90
11501;DHT22;5807;51.606;7.624;2022-07-05T16:22:11;23.90;69.50
11501;DHT22;5807;51.606;7.624;2022-07-05T16:24:38;24.30;68.70
11501;DHT22;5807;51.606;7.624;2022-07-05T16:27:06;24.50;68.80
11501;DHT22;5807;51.606;7.624;2022-07-05T16:29:33;24.40;67.20
11501;DHT22;5807;51.606;7.624;2022-07-05T16:36:55;23.80;69.20
11501;DHT22;5807;51.606;7.624;2022-07-05T16:39:22;23.70;69.00
11501;DHT22;5807;51.606;7.624;2022-07-05T16:41:49;23.70;70.20
11501;DHT22;5807;51.606;7.624;2022-07-05T16:44:18;23.40;69.90
11501;DHT22;5807;51.606;7.624;2022-07-05T16:46:44;23.30;71.40
11501;DHT22;5807;51.606;7.624;2022-07-05T16:49:12;23.10;71.80